Time;durP1;ratioP1;P1;durP2;ratioP2;P2;SDS_P1;SDS_P2;PMS_P1;PMS_P2;Temp;Humidity;BMP_temperature;BMP_pressure;BME280_temperature;BME280_humidity;BME280_pressure;Samples;Min_cycle;Max_cycle;Signal;HPM_P1;HPM_P2
2023/11/23 00:00:51;;;;;;;9.40;7.07;;;2.40;99.90;;;;;;6243121;23;20421;-57
2023/11/23 00:03:17;;;;;;;10.10;5.80;;;2.50;99.90;;;;;;6242759;23;20447;-57
2023/11/23 00:05:44;;;;;;;7.90;5.17;;;2.50;99.90;;;;;;6242860;23;20404;-54
2023/11/23 00:08:12;;;;;;;6.23;4.13;;;2.50;99.90;;;;;;6243486;23;20535;-57
2023/11/23 00:10:39;;;;;;;8.67;5.07;;;2.50;99.90;;;;;;6243445;23;20387;-56
2023/11/23 00:13:06;;;;;;;11.60;6.53;;;2.50;99.90;;;;;;6243521;23;20376;-57
2023/11/23 00:15:33;;;;;;;10.37;6.07;;;2.60;99.90;;;;;;6243622;23;20414;-57
2023/11/23 00:18:01;;;;;;;8.97;6.40;;;2.60;99.90;;;;;;6243488;23;20403;-56
2023/11/23 00:20:28;;;;;;;7.33;5.03;;;2.60;99.90;;;;;;6244094;23;20412;-55
2023/11/23 00:22:57;;;;;;;11.13;5.40;;;2.60;99.90;;;;;;6244105;23;20424;-50
2023/11/23 00:25:24;;;;;;;6.90;4.10;;;2.60;99.90;;;;;;6243590;23;20388;-57
2023/11/23 00:27:52;;;;;;;11.03;4.90;;;2.60;99.90;;;;;;6243951;23;20434;-58
2023/11/23 00:30:19;;;;;;;8.10;5.13;;;2.60;99.90;;;;;;6243085;23;20404;-61
2023/11/23 00:32:46;;;;;;;10.17;5.10;;;2.60;99.90;;;;;;6242532;23;20420;-56
2023/11/23 00:35:15;;;;;;;11.53;5.97;;;2.70;99.90;;;;;;6242072;23;20492;-59
2023/11/23 00:37:41;;;;;;;9.00;6.07;;;2.70;99.90;;;;;;6242210;23;20407;-56
2023/11/23 00:40:09;;;;;;;11.60;5.07;;;2.70;99.90;;;;;;6242214;23;20431;-59
2023/11/23 00:42:36;;;;;;;6.43;4.67;;;2.80;99.90;;;;;;6242456;23;20436;-58
2023/11/23 00:45:04;;;;;;;8.93;6.30;;;2.80;99.90;;;;;;6241159;23;20416;-60
2023/11/23 00:47:31;;;;;;;7.63;5.40;;;2.80;99.90;;;;;;6242290;23;20519;-60
2023/11/23 00:49:58;;;;;;;5.97;4.77;;;2.80;99.90;;;;;;6242169;23;20400;-60
2023/11/23 00:52:26;;;;;;;6.53;4.37;;;2.80;99.90;;;;;;6241869;23;20428;-58
2023/11/23 00:54:53;;;;;;;5.50;4.00;;;2.80;99.90;;;;;;6242613;23;20408;-60
2023/11/23 00:57:22;;;;;;;5.50;4.33;;;2.80;99.90;;;;;;6242196;23;20407;-61
2023/11/23 00:59:49;;;;;;;12.00;4.40;;;2.90;99.90;;;;;;6242804;23;20396;-58
2023/11/23 01:02:16;;;;;;;10.87;5.50;;;2.90;99.90;;;;;;6242113;23;20446;-61
2023/11/23 01:04:43;;;;;;;5.13;3.97;;;3.00;99.90;;;;;;6242127;23;20411;-59
2023/11/23 01:07:12;;;;;;;11.33;5.03;;;3.00;99.90;;;;;;6241558;23;20494;-60
2023/11/23 01:09:40;;;;;;;5.43;3.40;;;3.10;99.90;;;;;;6242556;23;20423;-59
2023/11/23 01:12:08;;;;;;;4.40;3.53;;;3.20;99.90;;;;;;6242198;23;20398;-61
2023/11/23 01:14:38;;;;;;;6.87;4.33;;;3.20;99.90;;;;;;6242377;23;20400;-61
2023/11/23 01:17:05;;;;;;;7.90;3.47;;;3.20;99.90;;;;;;6241641;23;20404;-60
2023/11/23 01:19:32;;;;;;;6.37;4.03;;;3.20;99.90;;;;;;6242548;23;20391;-55
2023/11/23 01:21:59;;;;;;;5.27;2.90;;;3.20;99.90;;;;;;6242417;23;20448;-61
2023/11/23 01:24:26;;;;;;;9.33;4.10;;;3.20;99.90;;;;;;6241888;23;20717;-61
2023/11/23 01:26:57;;;;;;;6.87;3.73;;;3.20;99.90;;;;;;6241830;23;20404;-61
2023/11/23 01:29:24;;;;;;;6.07;3.50;;;3.20;99.90;;;;;;6241972;23;20439;-60
2023/11/23 01:31:50;;;;;;;3.63;3.13;;;3.30;99.90;;;;;;6241582;23;20404;-58
2023/11/23 01:34:17;;;;;;;6.60;4.80;;;3.30;99.90;;;;;;6241231;23;20439;-61
2023/11/23 01:36:44;;;;;;;9.00;4.40;;;3.30;99.90;;;;;;6241879;23;20403;-60
2023/11/23 01:39:11;;;;;;;3.90;3.13;;;3.30;99.90;;;;;;6242383;23;20404;-60
2023/11/23 01:41:38;;;;;;;8.30;3.60;;;3.30;99.90;;;;;;6241447;23;20432;-59
2023/11/23 01:44:07;;;;;;;7.27;3.93;;;3.40;99.90;;;;;;6241755;23;20404;-57
2023/11/23 01:46:36;;;;;;;6.57;4.40;;;3.80;99.90;;;;;;6241780;23;20446;-61
2023/11/23 01:49:05;;;;;;;4.30;3.27;;;3.50;99.90;;;;;;6241959;23;20688;-58
2023/11/23 01:51:34;;;;;;;7.10;2.83;;;3.50;99.90;;;;;;6241793;23;20431;-62
2023/11/23 01:54:01;;;;;;;7.87;3.97;;;3.50;99.90;;;;;;6242076;23;20419;-61
2023/11/23 01:56:29;;;;;;;7.50;3.77;;;3.50;99.90;;;;;;6241799;23;20415;-60
2023/11/23 01:58:56;;;;;;;7.53;2.90;;;3.50;99.90;;;;;;6241675;23;20443;-61
2023/11/23 02:01:27;;;;;;;6.30;3.50;;;3.50;99.90;;;;;;6242363;23;20380;-60
2023/11/23 02:03:54;;;;;;;3.47;2.43;;;3.50;99.90;;;;;;6242077;23;20455;-57
2023/11/23 02:06:21;;;;;;;5.33;3.33;;;3.60;99.90;;;;;;6242015;23;20404;-63
2023/11/23 02:08:53;;;;;;;4.33;3.10;;;3.60;99.90;;;;;;6241780;23;20408;-60
2023/11/23 02:11:20;;;;;;;3.90;2.97;;;3.60;99.90;;;;;;6242042;23;20423;-54
2023/11/23 02:13:47;;;;;;;5.07;3.60;;;3.60;99.90;;;;;;6242098;23;20400;-55
2023/11/23 02:16:17;;;;;;;3.00;2.53;;;3.70;99.90;;;;;;6241640;23;20384;-60
2023/11/23 02:18:45;;;;;;;4.13;3.60;;;3.70;99.90;;;;;;6241779;23;20452;-55
2023/11/23 02:21:12;;;;;;;5.40;2.57;;;3.60;99.90;;;;;;6242240;23;20399;-60
2023/11/23 02:23:42;;;;;;;5.20;3.83;;;3.70;99.90;;;;;;6241731;23;20444;-58
2023/11/23 02:26:13;;;;;;;4.57;2.93;;;3.70;99.90;;;;;;6241850;23;20408;-59
2023/11/23 02:28:40;;;;;;;4.80;3.43;;;3.70;99.90;;;;;;6241256;23;20380;-59
2023/11/23 02:31:07;;;;;;;3.83;2.50;;;3.80;99.90;;;;;;6240912;23;20442;-56
2023/11/23 02:33:33;;;;;;;4.50;2.70;;;3.80;99.90;;;;;;6241388;23;20396;-57
2023/11/23 02:36:00;;;;;;;2.80;2.07;;;3.80;99.90;;;;;;6241440;23;20439;-57
2023/11/23 02:38:27;;;;;;;5.43;2.50;;;3.90;99.90;;;;;;6242052;23;20404;-60
2023/11/23 02:40:54;;;;;;;8.43;4.57;;;3.90;99.90;;;;;;6242009;23;20413;-59
2023/11/23 02:43:22;;;;;;;3.60;2.87;;;4.00;99.90;;;;;;6242925;23;20420;-61
2023/11/23 02:45:49;;;;;;;6.40;3.30;;;4.00;99.90;;;;;;6244076;23;20407;-58
2023/11/23 02:48:16;;;;;;;3.47;2.50;;;4.00;99.90;;;;;;6243401;23;20428;-58
2023/11/23 02:50:43;;;;;;;5.70;3.60;;;4.00;99.90;;;;;;6243999;23;20391;-58
2023/11/23 02:53:27;;;;;;;5.87;3.20;;;4.00;99.90;;;;;;6243848;23;20951;-60
2023/11/23 02:55:54;;;;;;;4.33;2.60;;;4.00;99.90;;;;;;6243609;23;20420;-59
2023/11/23 02:58:22;;;;;;;6.20;3.23;;;4.10;99.90;;;;;;6243572;23;20388;-56
2023/11/23 03:00:50;;;;;;;3.20;2.20;;;4.10;99.90;;;;;;6243413;23;20424;-60
2023/11/23 03:03:17;;;;;;;4.87;3.33;;;4.20;99.90;;;;;;6243242;23;20439;-54
2023/11/23 03:05:44;;;;;;;5.90;3.07;;;4.20;99.90;;;;;;6243362;23;20415;-57
2023/11/23 03:08:11;;;;;;;2.60;2.37;;;4.20;99.90;;;;;;6243384;23;20395;-59
2023/11/23 03:10:42;;;;;;;4.23;2.60;;;4.30;99.90;;;;;;6243414;23;20400;-59
2023/11/23 03:13:09;;;;;;;3.83;2.17;;;4.20;99.90;;;;;;6243259;23;20470;-59
2023/11/23 03:15:37;;;;;;;5.70;2.60;;;4.20;99.90;;;;;;6243885;23;20383;-59
2023/11/23 03:18:05;;;;;;;3.40;2.63;;;4.30;99.90;;;;;;6243261;23;20408;-58
2023/11/23 03:20:32;;;;;;;6.13;2.90;;;4.30;99.90;;;;;;6243583;23;20372;-57
2023/11/23 03:22:58;;;;;;;4.37;3.60;;;4.30;99.90;;;;;;6244111;23;20442;-56
2023/11/23 03:25:25;;;;;;;4.90;2.70;;;4.40;99.90;;;;;;6244001;23;20431;-55
2023/11/23 03:27:52;;;;;;;4.50;2.90;;;4.30;99.90;;;;;;6244263;23;20465;-58
2023/11/23 03:30:19;;;;;;;4.43;2.60;;;4.40;99.90;;;;;;6244435;23;20399;-55
2023/11/23 03:32:49;;;;;;;3.50;2.43;;;4.40;99.90;;;;;;6243915;23;20427;-62
2023/11/23 03:35:15;;;;;;;3.20;2.67;;;4.50;99.90;;;;;;6243693;23;20379;-58
2023/11/23 03:37:45;;;;;;;5.80;3.00;;;4.50;99.90;;;;;;6244411;23;20392;-58
2023/11/23 03:40:12;;;;;;;3.57;2.90;;;4.60;99.90;;;;;;6243573;23;20403;-60
2023/11/23 03:42:39;;;;;;;3.33;2.33;;;4.60;99.90;;;;;;6243725;23;20475;-61
2023/11/23 03:45:07;;;;;;;4.43;2.93;;;4.60;99.90;;;;;;6243355;23;20431;-61
2023/11/23 03:47:33;;;;;;;4.40;3.20;;;4.70;99.90;;;;;;6243438;23;20438;-59
2023/11/23 03:50:02;;;;;;;4.40;2.83;;;4.70;99.90;;;;;;6242614;23;20380;-60
2023/11/23 03:52:28;;;;;;;4.90;2.70;;;4.80;99.90;;;;;;6242431;23;20407;-57
2023/11/23 03:54:55;;;;;;;5.23;3.07;;;4.70;99.90;;;;;;6242495;23;20484;-58
2023/11/23 03:57:22;;;;;;;5.17;3.27;;;4.80;99.90;;;;;;6243348;23;20415;-60
2023/11/23 03:59:49;;;;;;;2.47;1.63;;;4.80;99.90;;;;;;6242624;23;20419;-59
2023/11/23 04:02:17;;;;;;;5.27;3.00;;;4.90;99.90;;;;;;6241988;23;20404;-62
2023/11/23 04:04:44;;;;;;;4.13;3.00;;;4.90;99.90;;;;;;6243018;23;20467;-58
2023/11/23 04:09:57;;;;;;;5.20;2.60;;;4.90;99.90;;;;;;6208446;23;20452;-61
2023/11/23 04:12:28;;;;;;;3.67;2.30;;;5.50;99.90;;;;;;6209810;23;20429;-61
2023/11/23 04:14:55;;;;;;;4.30;2.83;;;5.00;99.90;;;;;;6210429;23;20428;-58
2023/11/23 04:17:22;;;;;;;7.10;2.93;;;5.10;99.90;;;;;;6210708;23;20412;-58
2023/11/23 04:19:49;;;;;;;5.97;3.40;;;5.00;99.90;;;;;;6210543;23;20400;-61
2023/11/23 04:22:19;;;;;;;5.47;2.20;;;5.00;99.90;;;;;;6209991;23;20416;-59
2023/11/23 04:24:49;;;;;;;4.47;2.80;;;5.10;99.90;;;;;;6210693;23;20405;-60
2023/11/23 04:27:17;;;;;;;4.73;2.93;;;5.10;99.90;;;;;;6211261;23;20431;-58
2023/11/23 04:29:46;;;;;;;2.80;2.03;;;5.20;99.90;;;;;;6211191;23;20412;-58
2023/11/23 04:32:13;;;;;;;6.10;3.10;;;5.20;99.90;;;;;;6211205;23;20437;-60
2023/11/23 04:34:40;;;;;;;3.20;2.90;;;5.20;99.90;;;;;;6210252;23;20381;-62
2023/11/23 04:37:06;;;;;;;5.13;2.60;;;5.30;99.90;;;;;;6210130;23;20435;-63
2023/11/23 04:39:36;;;;;;;3.63;2.53;;;5.30;99.90;;;;;;6210476;23;20397;-61
2023/11/23 04:42:07;;;;;;;4.30;2.73;;;5.30;99.90;;;;;;6210995;23;20393;-61
2023/11/23 04:44:49;;;;;;;4.73;2.80;;;5.40;99.90;;;;;;6211260;23;20444;-60
2023/11/23 04:47:16;;;;;;;5.77;3.00;;;5.40;99.90;;;;;;6211815;23;20400;-61
2023/11/23 04:49:43;;;;;;;6.20;2.37;;;5.50;99.90;;;;;;6212820;23;20431;-61
2023/11/23 04:52:10;;;;;;;5.73;3.07;;;5.40;99.90;;;;;;6212899;23;20393;-58
2023/11/23 04:54:39;;;;;;;4.33;2.50;;;5.50;99.90;;;;;;6212101;23;20864;-58
2023/11/23 04:57:06;;;;;;;3.10;2.40;;;5.50;99.90;;;;;;6212015;23;20400;-57
2023/11/23 04:59:34;;;;;;;5.13;2.97;;;5.50;99.90;;;;;;6210772;23;20409;-58
2023/11/23 05:02:01;;;;;;;3.33;2.33;;;5.60;99.90;;;;;;6211065;23;20436;-56
2023/11/23 05:04:28;;;;;;;3.87;2.40;;;5.60;99.90;;;;;;6210886;23;20429;-63
2023/11/23 05:06:56;;;;;;;5.57;2.97;;;5.70;99.90;;;;;;6210659;23;20448;-59
2023/11/23 05:09:23;;;;;;;3.63;2.23;;;5.70;99.90;;;;;;6210914;23;20420;-59
2023/11/23 05:11:51;;;;;;;5.83;3.70;;;5.80;99.90;;;;;;6210893;23;20428;-60
2023/11/23 05:14:18;;;;;;;6.13;3.77;;;5.80;99.90;;;;;;6210655;23;20654;-61
2023/11/23 05:16:46;;;;;;;7.40;4.00;;;5.80;99.90;;;;;;6210552;23;20404;-59
2023/11/23 05:19:13;;;;;;;6.70;3.13;;;5.90;99.90;;;;;;6211287;23;20392;-56
2023/11/23 05:21:40;;;;;;;3.70;2.03;;;5.90;99.90;;;;;;6211301;23;20404;-61
2023/11/23 05:24:10;;;;;;;11.10;3.30;;;5.90;99.90;;;;;;6210460;23;20440;-61
2023/11/23 05:26:36;;;;;;;7.10;3.37;;;5.90;99.90;;;;;;6210166;23;20393;-61
2023/11/23 05:29:06;;;;;;;4.27;2.40;;;6.00;99.90;;;;;;6209848;23;20452;-59
2023/11/23 05:31:33;;;;;;;4.80;3.70;;;6.10;99.90;;;;;;6209684;23;20429;-62
2023/11/23 05:34:02;;;;;;;5.90;3.20;;;6.00;99.90;;;;;;6209109;23;20463;-60
2023/11/23 05:36:29;;;;;;;5.63;3.80;;;6.10;99.90;;;;;;6209441;23;20404;-63
2023/11/23 05:38:57;;;;;;;8.80;3.83;;;6.10;99.90;;;;;;6209559;23;20408;-62
2023/11/23 05:41:23;;;;;;;7.03;4.03;;;6.20;99.90;;;;;;6210034;23;20413;-61
2023/11/23 05:43:51;;;;;;;4.20;3.17;;;6.20;99.90;;;;;;6209958;23;20439;-61
2023/11/23 05:46:18;;;;;;;5.10;3.13;;;6.20;99.90;;;;;;6209486;23;20440;-61
2023/11/23 05:49:08;;;;;;;4.03;3.00;;;6.20;99.90;;;;;;6209928;23;20396;-63
2023/11/23 05:51:35;;;;;;;7.43;4.90;;;6.30;99.90;;;;;;6200860;23;20456;-62
2023/11/23 05:54:01;;;;;;;7.13;4.00;;;6.30;99.90;;;;;;6209430;23;20404;-61
2023/11/23 05:56:28;;;;;;;6.30;4.00;;;6.40;99.90;;;;;;6209416;23;20424;-62
2023/11/23 05:58:55;;;;;;;8.63;5.10;;;6.40;99.90;;;;;;6209378;23;20366;-61
2023/11/23 06:01:22;;;;;;;9.33;4.90;;;6.50;99.90;;;;;;6209317;23;20412;-60
2023/11/23 06:03:50;;;;;;;7.60;4.20;;;6.50;99.90;;;;;;6209221;23;20437;-60
2023/11/23 06:06:25;;;;;;;6.77;5.27;;;6.50;99.90;;;;;;6209107;23;20416;-62
2023/11/23 06:08:52;;;;;;;7.20;4.20;;;6.60;99.90;;;;;;6209147;23;20447;-61
2023/11/23 06:11:22;;;;;;;9.43;4.73;;;6.60;99.90;;;;;;6209553;23;20492;-59
2023/11/23 06:13:49;;;;;;;6.77;4.80;;;6.60;99.90;;;;;;6209274;23;20429;-60
2023/11/23 06:16:16;;;;;;;7.77;4.30;;;6.70;99.90;;;;;;6209460;23;20416;-62
2023/11/23 06:18:43;;;;;;;8.53;5.30;;;6.80;99.90;;;;;;6208694;23;20436;-61
2023/11/23 06:21:11;;;;;;;6.80;3.90;;;6.80;99.90;;;;;;6209308;23;20408;-63
2023/11/23 06:23:39;;;;;;;8.40;5.50;;;6.90;99.90;;;;;;6208557;23;20441;-62
2023/11/23 06:26:10;;;;;;;6.87;3.63;;;6.90;99.90;;;;;;6209178;23;20401;-60
2023/11/23 06:28:37;;;;;;;6.80;4.43;;;6.90;99.90;;;;;;6209473;23;20396;-62
2023/11/23 06:31:05;;;;;;;6.47;4.53;;;6.90;99.90;;;;;;6208933;23;20604;-59
2023/11/23 06:33:33;;;;;;;8.00;5.10;;;7.00;99.90;;;;;;6208468;23;20424;-61
2023/11/23 06:35:59;;;;;;;7.53;4.63;;;7.00;99.90;;;;;;6209000;23;20464;-62
2023/11/23 06:38:28;;;;;;;9.40;5.30;;;7.00;99.90;;;;;;6209317;23;20419;-61
2023/11/23 06:40:59;;;;;;;10.30;5.90;;;7.00;99.90;;;;;;6208805;23;20472;-61
2023/11/23 06:43:26;;;;;;;9.93;5.50;;;7.00;99.90;;;;;;6209059;23;20425;-61
2023/11/23 06:45:53;;;;;;;9.87;4.43;;;7.00;99.90;;;;;;6209063;23;20412;-62
2023/11/23 06:48:20;;;;;;;9.47;5.00;;;7.00;99.90;;;;;;6209143;23;20397;-63
2023/11/23 06:50:46;;;;;;;7.00;4.80;;;7.00;99.90;;;;;;6209123;23;20409;-59
2023/11/23 06:53:18;;;;;;;7.67;4.63;;;7.00;99.90;;;;;;6208317;23;20432;-61
2023/11/23 06:55:45;;;;;;;8.17;5.07;;;7.00;99.90;;;;;;6208776;23;20685;-62
2023/11/23 06:58:16;;;;;;;7.50;4.50;;;7.00;99.90;;;;;;6208906;23;20429;-62
2023/11/23 07:00:43;;;;;;;11.80;4.80;;;7.00;99.90;;;;;;6208828;23;20375;-61
2023/11/23 07:03:10;;;;;;;10.00;5.00;;;7.00;99.90;;;;;;6208514;23;20413;-61
2023/11/23 07:05:37;;;;;;;7.83;4.67;;;6.90;99.90;;;;;;6208590;23;20396;-62
2023/11/23 07:08:05;;;;;;;5.57;3.97;;;6.90;99.90;;;;;;6208341;23;20426;-61
2023/11/23 07:10:33;;;;;;;6.57;5.13;;;6.90;99.90;;;;;;6209166;23;20428;-62
2023/11/23 07:13:01;;;;;;;6.07;4.43;;;6.90;99.90;;;;;;6209154;23;20381;-61
2023/11/23 07:15:29;;;;;;;11.53;5.77;;;6.90;99.90;;;;;;6209059;23;20480;-61
2023/11/23 07:17:58;;;;;;;6.77;5.30;;;6.90;99.90;;;;;;6209049;23;20405;-62
2023/11/23 07:20:25;;;;;;;6.23;5.00;;;6.80;99.90;;;;;;6209128;23;20443;-59
2023/11/23 07:22:58;;;;;;;10.20;5.37;;;6.80;99.90;;;;;;6209293;23;20408;-64
2023/11/23 07:25:25;;;;;;;8.67;5.87;;;6.80;99.90;;;;;;6208919;23;20459;-62
2023/11/23 07:27:52;;;;;;;7.87;5.30;;;6.80;99.90;;;;;;6209434;23;20436;-63
2023/11/23 07:30:20;;;;;;;7.43;5.37;;;6.80;99.90;;;;;;6211042;23;20433;-61
2023/11/23 07:32:48;;;;;;;8.70;5.70;;;6.90;99.90;;;;;;6209481;23;20405;-62
2023/11/23 07:35:15;;;;;;;8.00;4.50;;;6.90;99.90;;;;;;6208658;23;20429;-64
2023/11/23 07:37:42;;;;;;;10.17;5.47;;;6.90;99.90;;;;;;6208143;23;20412;-62
2023/11/23 07:40:13;;;;;;;6.10;5.30;;;7.00;99.90;;;;;;6207154;23;20439;-62
2023/11/23 07:42:41;;;;;;;9.60;5.60;;;7.00;99.90;;;;;;6207719;23;20429;-62
2023/11/23 07:45:09;;;;;;;9.33;6.30;;;7.00;99.90;;;;;;6207965;23;20479;-60
2023/11/23 07:47:36;;;;;;;8.97;5.93;;;7.00;99.90;;;;;;6207715;23;20391;-60
2023/11/23 07:50:07;;;;;;;9.10;5.57;;;7.00;99.90;;;;;;6207668;23;20409;-61
2023/11/23 07:52:34;;;;;;;6.57;5.10;;;7.00;99.90;;;;;;6207310;23;20480;-62
2023/11/23 07:55:00;;;;;;;9.70;5.20;;;7.00;99.90;;;;;;6206575;23;20405;-62
2023/11/23 07:57:29;;;;;;;7.87;5.00;;;7.00;99.90;;;;;;6206032;23;20385;-62
2023/11/23 07:59:57;;;;;;;6.73;4.97;;;7.00;99.90;;;;;;6205002;23;20405;-61
2023/11/23 08:02:25;;;;;;;8.90;3.83;;;7.00;99.90;;;;;;6206409;23;20415;-63
2023/11/23 08:04:52;;;;;;;9.70;5.40;;;7.00;99.90;;;;;;6207493;23;20499;-62
2023/11/23 08:07:20;;;;;;;9.13;5.43;;;7.00;99.90;;;;;;6206840;23;20409;-61
2023/11/23 08:09:48;;;;;;;10.70;5.50;;;7.00;99.90;;;;;;6207230;23;20413;-63
2023/11/23 08:12:14;;;;;;;9.63;5.57;;;7.00;99.90;;;;;;6207138;23;20496;-63
2023/11/23 08:14:41;;;;;;;6.57;5.03;;;7.10;99.90;;;;;;6207181;23;20840;-64
2023/11/23 08:17:09;;;;;;;8.50;5.00;;;7.10;99.90;;;;;;6206224;23;20428;-63
2023/11/23 08:19:36;;;;;;;6.40;4.70;;;7.10;99.90;;;;;;6207506;23;20440;-63
2023/11/23 08:22:03;;;;;;;5.20;4.70;;;7.20;99.90;;;;;;6206257;23;20409;-63
2023/11/23 08:24:32;;;;;;;5.90;4.00;;;7.20;99.90;;;;;;6204969;23;20460;-63
2023/11/23 08:26:59;;;;;;;8.77;5.30;;;7.20;99.90;;;;;;6206857;23;20405;-61
2023/11/23 08:29:28;;;;;;;8.50;6.13;;;7.20;99.90;;;;;;6202808;23;20433;-62
2023/11/23 08:31:55;;;;;;;7.17;4.00;;;7.20;99.90;;;;;;6195988;23;20405;-64
2023/11/23 08:34:22;;;;;;;9.77;5.20;;;7.20;99.90;;;;;;6195638;23;20428;-63
2023/11/23 08:36:49;;;;;;;8.07;5.53;;;7.20;99.90;;;;;;6194557;23;20479;-63
2023/11/23 08:39:16;;;;;;;11.20;5.47;;;7.20;99.90;;;;;;6195321;23;20436;-64
2023/11/23 08:41:44;;;;;;;8.53;5.30;;;7.30;99.90;;;;;;6196178;23;20382;-63
2023/11/23 08:44:11;;;;;;;6.87;5.43;;;7.30;99.90;;;;;;6195743;23;20444;-63
2023/11/23 08:46:41;;;;;;;9.37;5.20;;;7.30;99.90;;;;;;6194849;23;20456;-61
2023/11/23 08:49:10;;;;;;;11.57;5.87;;;7.30;99.90;;;;;;6195236;23;20405;-63
2023/11/23 08:51:37;;;;;;;8.33;6.10;;;7.40;99.90;;;;;;6194951;23;20429;-62
2023/11/23 08:54:05;;;;;;;7.47;5.90;;;7.40;99.90;;;;;;6195179;23;20433;-61
2023/11/23 08:56:32;;;;;;;8.23;5.27;;;7.50;99.90;;;;;;6194874;23;20930;-62
2023/11/23 08:59:00;;;;;;;8.87;5.73;;;7.50;99.90;;;;;;6195206;23;20409;-62
2023/11/23 09:01:26;;;;;;;10.00;6.03;;;7.50;99.90;;;;;;6195869;23;20908;-64
2023/11/23 09:03:54;;;;;;;8.73;5.77;;;7.60;99.90;;;;;;6195455;23;20400;-65
2023/11/23 09:06:21;;;;;;;11.03;6.60;;;7.60;99.90;;;;;;6196002;23;20875;-64
2023/11/23 09:08:49;;;;;;;6.00;3.10;;;7.60;99.90;;;;;;6195962;23;20910;-63
2023/11/23 09:11:19;;;;;;;9.10;5.03;;;7.70;99.90;;;;;;6196014;23;20409;-64
2023/11/23 09:13:46;;;;;;;9.73;5.47;;;7.70;99.90;;;;;;6196189;23;20751;-64
2023/11/23 09:16:14;;;;;;;7.00;5.00;;;7.70;99.90;;;;;;6194421;23;20428;-63
2023/11/23 09:18:42;;;;;;;7.37;4.80;;;7.80;99.90;;;;;;6194822;23;20409;-66
2023/11/23 09:21:10;;;;;;;12.17;6.40;;;7.80;99.90;;;;;;6195192;23;20667;-61
2023/11/23 09:23:37;;;;;;;8.10;5.60;;;7.80;99.90;;;;;;6195079;23;20488;-59
2023/11/23 09:26:05;;;;;;;7.10;4.80;;;7.80;99.90;;;;;;6191561;23;20459;-64
2023/11/23 09:28:32;;;;;;;5.87;3.67;;;7.80;99.90;;;;;;6188523;23;20409;-64
2023/11/23 09:30:59;;;;;;;6.40;4.60;;;7.80;99.90;;;;;;6189056;23;20448;-62
2023/11/23 09:33:29;;;;;;;10.10;4.10;;;7.80;99.90;;;;;;6188576;23;20400;-64
2023/11/23 09:35:56;;;;;;;7.10;5.37;;;8.00;99.90;;;;;;6188211;23;20405;-62
2023/11/23 09:38:25;;;;;;;8.80;5.40;;;8.20;99.90;;;;;;6188562;23;20415;-60
2023/11/23 09:40:58;;;;;;;10.80;6.10;;;8.10;99.90;;;;;;6188122;23;20423;-62
2023/11/23 09:43:25;;;;;;;7.27;5.20;;;8.00;99.90;;;;;;6188250;23;20483;-62
2023/11/23 09:45:52;;;;;;;8.87;5.00;;;8.00;99.90;;;;;;6188465;23;20446;-61
2023/11/23 09:48:20;;;;;;;7.00;4.50;;;8.00;99.90;;;;;;6188628;23;20457;-63
2023/11/23 09:50:49;;;;;;;10.63;5.37;;;8.00;99.90;;;;;;6188034;23;20433;-63
2023/11/23 09:53:16;;;;;;;7.30;5.33;;;8.00;99.90;;;;;;6188139;23;20433;-61
2023/11/23 09:55:43;;;;;;;5.97;4.10;;;8.00;99.90;;;;;;6187914;23;20417;-61
2023/11/23 09:58:10;;;;;;;7.07;5.47;;;8.10;99.90;;;;;;6188277;23;20404;-63
2023/11/23 10:00:37;;;;;;;11.27;5.83;;;8.10;99.90;;;;;;6188750;23;20404;-61
2023/11/23 10:03:08;;;;;;;10.57;5.67;;;8.10;99.90;;;;;;6187972;23;20434;-63
2023/11/23 10:05:37;;;;;;;7.37;4.47;;;8.10;99.90;;;;;;6187980;23;20452;-62
2023/11/23 10:08:05;;;;;;;11.83;4.73;;;8.10;99.90;;;;;;6188209;23;20444;-64
2023/11/23 10:10:32;;;;;;;7.27;5.83;;;8.10;99.90;;;;;;6188477;23;20429;-62
2023/11/23 10:13:00;;;;;;;11.87;5.40;;;8.00;99.90;;;;;;6188311;23;20433;-63
2023/11/23 10:15:27;;;;;;;7.70;5.53;;;8.10;99.90;;;;;;6188626;23;20396;-60
2023/11/23 10:17:54;;;;;;;10.80;5.63;;;8.10;99.90;;;;;;6188012;23;20401;-62
2023/11/23 10:20:22;;;;;;;7.33;5.30;;;8.10;99.90;;;;;;6188216;23;20405;-62
2023/11/23 10:22:50;;;;;;;7.70;5.07;;;8.10;99.90;;;;;;6188365;23;20429;-62
2023/11/23 10:25:29;;;;;;;6.67;5.27;;;8.10;99.90;;;;;;6188187;23;20440;-63
2023/11/23 10:27:58;;;;;;;8.87;5.03;;;8.10;99.90;;;;;;6188283;23;20440;-60
2023/11/23 10:30:25;;;;;;;8.80;5.80;;;8.10;99.90;;;;;;6188058;23;20415;-63
2023/11/23 10:32:53;;;;;;;6.93;4.67;;;8.10;99.90;;;;;;6187782;23;20686;-60
2023/11/23 10:35:21;;;;;;;7.60;4.97;;;8.10;99.90;;;;;;6188085;23;20447;-62
2023/11/23 10:37:52;;;;;;;8.43;5.63;;;8.10;99.90;;;;;;6188142;23;20436;-64
2023/11/23 10:40:21;;;;;;;8.10;5.90;;;8.10;99.90;;;;;;6187025;23;20382;-62
2023/11/23 10:42:51;;;;;;;10.27;4.80;;;8.10;99.90;;;;;;6187042;23;20404;-61
2023/11/23 10:45:19;;;;;;;8.13;4.67;;;8.20;99.90;;;;;;6186583;23;20511;-61
2023/11/23 10:47:50;;;;;;;9.23;4.80;;;8.20;99.90;;;;;;6186635;23;20407;-61
2023/11/23 10:50:19;;;;;;;7.60;4.23;;;8.30;99.90;;;;;;6187092;23;20456;-62
2023/11/23 10:52:47;;;;;;;7.80;5.60;;;8.30;99.90;;;;;;6186659;23;20411;-61
2023/11/23 10:55:14;;;;;;;8.10;5.10;;;8.30;99.90;;;;;;6186933;23;20463;-61
2023/11/23 10:57:45;;;;;;;10.23;5.43;;;8.30;99.90;;;;;;6186692;23;20872;-62
2023/11/23 11:00:17;;;;;;;8.90;5.30;;;8.30;99.90;;;;;;6186991;23;20467;-60
2023/11/23 11:02:45;;;;;;;7.80;4.93;;;8.30;99.90;;;;;;6186677;23;20440;-62
2023/11/23 11:05:26;;;;;;;8.50;5.60;;;8.40;99.90;;;;;;6188509;23;21002;-64
2023/11/23 11:07:59;;;;;;;10.60;5.37;;;8.40;99.90;;;;;;6188458;23;20443;-62
2023/11/23 11:10:27;;;;;;;11.83;6.27;;;8.40;99.90;;;;;;6188590;23;20400;-61
2023/11/23 11:13:05;;;;;;;9.73;5.90;;;8.30;99.90;;;;;;6188870;23;20464;-61
2023/11/23 11:15:34;;;;;;;8.40;5.80;;;8.30;99.90;;;;;;6188473;23;20407;-63
2023/11/23 11:18:06;;;;;;;7.77;5.10;;;8.30;99.90;;;;;;6188448;23;20914;-63
2023/11/23 11:20:34;;;;;;;10.10;5.23;;;8.30;99.90;;;;;;6188616;23;20848;-62
2023/11/23 11:23:01;;;;;;;11.03;5.30;;;8.40;99.90;;;;;;6188824;23;20411;-62
2023/11/23 11:25:43;;;;;;;8.80;4.97;;;8.40;99.90;;;;;;6188694;23;20731;-60
2023/11/23 11:28:10;;;;;;;6.80;5.53;;;8.40;99.90;;;;;;6188319;23;20836;-62
2023/11/23 11:30:39;;;;;;;6.87;4.70;;;8.40;99.90;;;;;;6188644;23;20789;-62
2023/11/23 11:33:11;;;;;;;7.20;4.90;;;8.40;99.90;;;;;;6188351;23;20412;-61
2023/11/23 11:35:45;;;;;;;9.67;5.73;;;8.40;99.90;;;;;;6188556;23;20486;-63
2023/11/23 11:38:15;;;;;;;6.73;4.10;;;8.50;99.90;;;;;;6188357;23;20735;-63
2023/11/23 11:40:44;;;;;;;12.73;5.00;;;8.50;99.90;;;;;;6188477;23;20400;-61
2023/11/23 11:43:11;;;;;;;7.10;4.40;;;8.50;99.90;;;;;;6188349;23;20395;-62
2023/11/23 11:45:39;;;;;;;8.53;4.10;;;8.50;99.90;;;;;;6188271;23;20523;-63
2023/11/23 11:48:06;;;;;;;6.93;5.73;;;8.50;99.90;;;;;;6188705;23;20416;-63
2023/11/23 11:50:33;;;;;;;11.27;6.47;;;8.60;99.90;;;;;;6188282;23;20428;-62
2023/11/23 11:53:00;;;;;;;6.63;4.20;;;8.60;99.90;;;;;;6188389;23;20429;-60
2023/11/23 11:55:27;;;;;;;9.77;5.97;;;8.60;99.90;;;;;;6188094;23;21028;-60
2023/11/23 11:57:56;;;;;;;4.87;3.67;;;8.60;99.90;;;;;;6188121;23;20467;-63
2023/11/23 12:00:23;;;;;;;8.70;5.93;;;8.60;99.90;;;;;;6187150;23;20890;-61
2023/11/23 12:02:51;;;;;;;9.47;6.30;;;8.60;99.90;;;;;;6188140;23;20886;-60
2023/11/23 12:05:20;;;;;;;10.63;6.03;;;8.60;99.90;;;;;;6188163;23;20557;-62
2023/11/23 12:07:53;;;;;;;7.10;5.03;;;8.70;99.90;;;;;;6187476;23;20401;-58
2023/11/23 12:10:20;;;;;;;8.37;5.00;;;8.70;99.90;;;;;;6187943;23;20424;-63
2023/11/23 12:12:47;;;;;;;7.93;5.67;;;8.70;99.90;;;;;;6187966;23;20396;-60
2023/11/23 12:15:16;;;;;;;7.17;5.50;;;8.80;99.90;;;;;;6187837;23;20396;-62
2023/11/23 12:17:52;;;;;;;8.00;4.77;;;8.80;99.90;;;;;;6189278;23;20401;-62
2023/11/23 12:20:19;;;;;;;7.70;4.80;;;8.80;99.90;;;;;;6187865;23;20400;-61
2023/11/23 12:22:47;;;;;;;9.20;5.07;;;8.90;99.90;;;;;;6187715;23;20424;-62
2023/11/23 12:25:17;;;;;;;5.63;4.00;;;8.90;99.90;;;;;;6187737;23;20441;-62
2023/11/23 12:27:45;;;;;;;8.03;5.03;;;8.90;99.90;;;;;;6187791;23;20393;-61
2023/11/23 12:30:15;;;;;;;8.23;4.83;;;9.00;99.90;;;;;;6188382;23;20459;-62
2023/11/23 12:32:42;;;;;;;6.43;4.70;;;9.00;99.90;;;;;;6187247;23;20488;-63
2023/11/23 12:35:10;;;;;;;7.20;4.83;;;9.00;99.90;;;;;;6188151;23;20728;-63
2023/11/23 12:37:37;;;;;;;6.60;4.40;;;9.10;99.90;;;;;;6187807;23;20440;-62
2023/11/23 12:40:09;;;;;;;5.73;3.87;;;9.10;99.90;;;;;;6188042;23;20436;-61
2023/11/23 12:42:36;;;;;;;5.40;4.20;;;9.20;99.90;;;;;;6188237;23;20393;-63
2023/11/23 12:45:07;;;;;;;6.30;4.50;;;9.20;99.90;;;;;;6188199;23;20456;-63
2023/11/23 12:47:35;;;;;;;4.67;3.13;;;9.30;99.90;;;;;;6187766;23;20493;-63
2023/11/23 12:50:04;;;;;;;5.63;4.00;;;9.40;99.90;;;;;;6187673;23;20412;-62
2023/11/23 12:52:33;;;;;;;7.33;4.40;;;9.50;99.90;;;;;;6187497;23;20532;-62
2023/11/23 12:55:01;;;;;;;6.13;3.80;;;9.50;99.90;;;;;;6187644;23;20467;-61
2023/11/23 12:57:29;;;;;;;5.00;3.20;;;9.60;99.90;;;;;;6187899;23;20433;-61
2023/11/23 12:59:57;;;;;;;6.13;3.10;;;9.70;99.90;;;;;;6187829;23;20409;-61
2023/11/23 13:02:24;;;;;;;3.17;2.87;;;9.70;99.90;;;;;;6187500;23;20407;-60